Exy Johnson — WDB3395 — position and weather

sailwx.info

Track history (hours):
 
Tides and Currents Weather Stations Pressure Air Temp Water Temp Dewpoint Dewpoint Depression Visibility Wind Speed Wind Dir Waves Ship Positions

Exy Johnson (United States)

Ship's website: http://www.lamitopsail.org/index.asp

Owner: Los Angeles Maritime Institute, San Pedro, CA. More information available from US FCC via Universal Licensing System and Coast Guard Vessel Documentation Center.

Last reported at 2017-Apr-30 17:55 UTC. Time now 2017-Apr-30 18:44 UTC.
Position N 33°43' W 118°16'.

Length 34 m; draft 3.7 m.

Type: Sailing vessel. MMSI: 366883970.

Date/timePositionNaut miles runAvg speedWind from/ knotsBaromVisibWave heightAir tempDewpointWater temp
2017-Apr-30 17:55N 33°43' W 118°16'1 0.0
2017-Apr-28 23:34N 33°44' W 118°17'0 0.0
2017-Apr-28 23:05N 33°44' W 118°17'0 0.0
2017-Apr-28 23:00N 33°44' W 118°17'0 0.0
2017-Apr-28 22:30N 33°44' W 118°17'0 0.0
2017-Apr-28 22:00N 33°44' W 118°17'0 0.0
2017-Apr-28 21:30N 33°44' W 118°17'0 0.0
2017-Apr-28 19:56N 33°44' W 118°17'0 0.0
2017-Apr-28 19:30N 33°44' W 118°17'0 0.0
2017-Apr-28 19:00N 33°44' W 118°17'1 1.3
2017-Apr-28 18:30N 33°45' W 118°17'1 0.0
2017-Apr-26 23:45N 33°44' W 118°17'0 0.0
2017-Apr-26 23:30N 33°44' W 118°17'0 0.0
2017-Apr-26 23:00N 33°44' W 118°17'0 0.0
2017-Apr-26 22:30N 33°44' W 118°17'0 0.0
2017-Apr-26 22:00N 33°44' W 118°17'0 0.0
2017-Apr-26 21:30N 33°44' W 118°17'0 0.0
2017-Apr-26 21:00N 33°44' W 118°17'0 0.0
2017-Apr-26 20:30N 33°44' W 118°17'0 0.1
2017-Apr-26 19:51N 33°44' W 118°17'0 0.9
2017-Apr-26 19:29N 33°44' W 118°17'2 3.4
2017-Apr-26 19:00N 33°43' W 118°16'0 0.7
2017-Apr-26 18:24N 33°43' W 118°16'1 0.0
2017-Apr-25 20:45N 33°44' W 118°17'0 0.0
2017-Apr-25 20:30N 33°44' W 118°17'0 0.0
2017-Apr-25 20:00N 33°44' W 118°17'0 0.7
2017-Apr-25 19:29N 33°44' W 118°16'1 1.8
2017-Apr-25 18:57N 33°43' W 118°16'  
2017-Apr-23 02:59N 33°44' W 118°17'0 0.1
2017-Apr-23 02:30N 33°44' W 118°17'1 2.9
2017-Apr-23 02:00N 33°43' W 118°16'2 3.0
2017-Apr-23 01:21N 33°41' W 118°15'2 5.2
2017-Apr-23 01:00N 33°43' W 118°15'2 3.8
2017-Apr-23 00:30N 33°44' W 118°17'0 0.1
2017-Apr-22 22:04N 33°44' W 118°17'0 0.0
2017-Apr-22 21:57N 33°44' W 118°17'0 0.0
2017-Apr-22 21:27N 33°44' W 118°17'0 0.0
2017-Apr-22 20:59N 33°44' W 118°17'0 0.0
2017-Apr-22 20:04N 33°44' W 118°17'0 0.0
2017-Apr-22 20:00N 33°44' W 118°17'1 1.0
2017-Apr-22 19:30N 33°44' W 118°16'1 2.0
2017-Apr-22 19:00N 33°43' W 118°16'1 1.1
2017-Apr-22 18:30N 33°43' W 118°16'0 0.8
2017-Apr-22 18:00N 33°43' W 118°16'1 1.3
2017-Apr-22 17:30N 33°44' W 118°17'0 0.0
2017-Apr-22 17:00N 33°44' W 118°17'0 0.0
2017-Apr-22 16:30N 33°44' W 118°17'0 0.0
2017-Apr-22 16:00N 33°44' W 118°17'0 0.0
2017-Apr-22 15:30N 33°44' W 118°17'0 0.0
2017-Apr-22 15:00N 33°44' W 118°17'0 0.0
2017-Apr-22 14:30N 33°44' W 118°17'0 0.0
2017-Apr-22 12:50N 33°44' W 118°17'0 0.0
2017-Apr-22 12:30N 33°44' W 118°17'0 0.0
2017-Apr-22 12:00N 33°44' W 118°17'0 0.0
2017-Apr-22 11:30N 33°44' W 118°17'0 0.0
2017-Apr-22 11:00N 33°44' W 118°17'0 0.0
2017-Apr-22 10:30N 33°44' W 118°17'0 0.0
2017-Apr-22 10:00N 33°44' W 118°17'0 0.0
2017-Apr-22 09:30N 33°44' W 118°17'0 0.0
2017-Apr-22 09:00N 33°44' W 118°17'0 0.0
2017-Apr-22 08:30N 33°44' W 118°17'0 0.0
2017-Apr-22 07:27N 33°44' W 118°17'0 0.0
2017-Apr-22 07:00N 33°44' W 118°17'0 0.0
2017-Apr-22 06:30N 33°44' W 118°17'0 0.0
2017-Apr-22 06:00N 33°44' W 118°17'0 0.0
2017-Apr-22 05:30N 33°44' W 118°17'0 0.0
2017-Apr-22 05:00N 33°44' W 118°17'0 0.0
2017-Apr-22 04:30N 33°44' W 118°17'0 0.0
2017-Apr-22 01:41N 33°44' W 118°17'0 0.0
2017-Apr-22 01:27N 33°44' W 118°17'0 0.0
2017-Apr-22 01:00N 33°44' W 118°17'0 0.0
2017-Apr-21 21:32N 33°44' W 118°17'0 0.0
2017-Apr-21 21:16N 33°44' W 118°17'0 0.0
2017-Apr-21 19:30N 33°44' W 118°17'5 1.9
2017-Apr-21 16:54N 33°39' W 118°19'5 6.3
2017-Apr-21 16:11N 33°36' W 118°22'5 7.3
2017-Apr-21 15:32N 33°32' W 118°26'0 7.5
2017-Apr-21 15:29N 33°32' W 118°26'3 7.2
2017-Apr-21 15:00N 33°29' W 118°29'2 3.5
2017-Apr-21 14:21N 33°27' W 118°30'0 0.0
2017-Apr-21 02:21N 33°27' W 118°30'  
Track history (hours):
 
Tides and Currents Weather Stations Pressure Air Temp Water Temp Dewpoint Dewpoint Depression Visibility Wind Speed Wind Dir Waves Ship Positions

Exy Johnson (United States)

Ship's website: http://www.lamitopsail.org/index.asp

Owner: Los Angeles Maritime Institute, San Pedro, CA. More information available from US FCC via Universal Licensing System and Coast Guard Vessel Documentation Center.

Last reported at 2017-Apr-30 17:55 UTC. Time now 2017-Apr-30 18:44 UTC.
Position N 33°43' W 118°16'.

Length 34 m; draft 3.7 m.

Type: Sailing vessel. MMSI: 366883970.

Date/timePositionNaut miles runAvg speedWind from/ knotsBaromVisibWave heightAir tempDewpointWater temp
2017-Apr-30 17:55N 33°43' W 118°16'1 0.0
2017-Apr-28 23:34N 33°44' W 118°17'0 0.0
2017-Apr-28 23:05N 33°44' W 118°17'0 0.0
2017-Apr-28 23:00N 33°44' W 118°17'0 0.0
2017-Apr-28 22:30N 33°44' W 118°17'0 0.0
2017-Apr-28 22:00N 33°44' W 118°17'0 0.0
2017-Apr-28 21:30N 33°44' W 118°17'0 0.0
2017-Apr-28 19:56N 33°44' W 118°17'0 0.0
2017-Apr-28 19:30N 33°44' W 118°17'0 0.0
2017-Apr-28 19:00N 33°44' W 118°17'1 1.3
2017-Apr-28 18:30N 33°45' W 118°17'1 0.0
2017-Apr-26 23:45N 33°44' W 118°17'0 0.0
2017-Apr-26 23:30N 33°44' W 118°17'0 0.0
2017-Apr-26 23:00N 33°44' W 118°17'0 0.0
2017-Apr-26 22:30N 33°44' W 118°17'0 0.0
2017-Apr-26 22:00N 33°44' W 118°17'0 0.0
2017-Apr-26 21:30N 33°44' W 118°17'0 0.0
2017-Apr-26 21:00N 33°44' W 118°17'0 0.0
2017-Apr-26 20:30N 33°44' W 118°17'0 0.1
2017-Apr-26 19:51N 33°44' W 118°17'0 0.9
2017-Apr-26 19:29N 33°44' W 118°17'2 3.4
2017-Apr-26 19:00N 33°43' W 118°16'0 0.7
2017-Apr-26 18:24N 33°43' W 118°16'1 0.0
2017-Apr-25 20:45N 33°44' W 118°17'0 0.0
2017-Apr-25 20:30N 33°44' W 118°17'0 0.0
2017-Apr-25 20:00N 33°44' W 118°17'0 0.7
2017-Apr-25 19:29N 33°44' W 118°16'1 1.8
2017-Apr-25 18:57N 33°43' W 118°16'  
2017-Apr-23 02:59N 33°44' W 118°17'0 0.1
2017-Apr-23 02:30N 33°44' W 118°17'1 2.9
2017-Apr-23 02:00N 33°43' W 118°16'2 3.0
2017-Apr-23 01:21N 33°41' W 118°15'2 5.2
2017-Apr-23 01:00N 33°43' W 118°15'2 3.8
2017-Apr-23 00:30N 33°44' W 118°17'0 0.1
2017-Apr-22 22:04N 33°44' W 118°17'0 0.0
2017-Apr-22 21:57N 33°44' W 118°17'0 0.0
2017-Apr-22 21:27N 33°44' W 118°17'0 0.0
2017-Apr-22 20:59N 33°44' W 118°17'0 0.0
2017-Apr-22 20:04N 33°44' W 118°17'0 0.0
2017-Apr-22 20:00N 33°44' W 118°17'1 1.0
2017-Apr-22 19:30N 33°44' W 118°16'1 2.0
2017-Apr-22 19:00N 33°43' W 118°16'1 1.1
2017-Apr-22 18:30N 33°43' W 118°16'0 0.8
2017-Apr-22 18:00N 33°43' W 118°16'1 1.3
2017-Apr-22 17:30N 33°44' W 118°17'0 0.0
2017-Apr-22 17:00N 33°44' W 118°17'0 0.0
2017-Apr-22 16:30N 33°44' W 118°17'0 0.0
2017-Apr-22 16:00N 33°44' W 118°17'0 0.0
2017-Apr-22 15:30N 33°44' W 118°17'0 0.0
2017-Apr-22 15:00N 33°44' W 118°17'0 0.0
2017-Apr-22 14:30N 33°44' W 118°17'0 0.0
2017-Apr-22 12:50N 33°44' W 118°17'0 0.0
2017-Apr-22 12:30N 33°44' W 118°17'0 0.0
2017-Apr-22 12:00N 33°44' W 118°17'0 0.0
2017-Apr-22 11:30N 33°44' W 118°17'0 0.0
2017-Apr-22 11:00N 33°44' W 118°17'0 0.0
2017-Apr-22 10:30N 33°44' W 118°17'0 0.0
2017-Apr-22 10:00N 33°44' W 118°17'0 0.0
2017-Apr-22 09:30N 33°44' W 118°17'0 0.0
2017-Apr-22 09:00N 33°44' W 118°17'0 0.0
2017-Apr-22 08:30N 33°44' W 118°17'0 0.0
2017-Apr-22 07:27N 33°44' W 118°17'0 0.0
2017-Apr-22 07:00N 33°44' W 118°17'0 0.0
2017-Apr-22 06:30N 33°44' W 118°17'0 0.0
2017-Apr-22 06:00N 33°44' W 118°17'0 0.0
2017-Apr-22 05:30N 33°44' W 118°17'0 0.0
2017-Apr-22 05:00N 33°44' W 118°17'0 0.0
2017-Apr-22 04:30N 33°44' W 118°17'0 0.0
2017-Apr-22 01:41N 33°44' W 118°17'0 0.0
2017-Apr-22 01:27N 33°44' W 118°17'0 0.0
2017-Apr-22 01:00N 33°44' W 118°17'0 0.0
2017-Apr-21 21:32N 33°44' W 118°17'0 0.0
2017-Apr-21 21:16N 33°44' W 118°17'0 0.0
2017-Apr-21 19:30N 33°44' W 118°17'5 1.9
2017-Apr-21 16:54N 33°39' W 118°19'5 6.3
2017-Apr-21 16:11N 33°36' W 118°22'5 7.3
2017-Apr-21 15:32N 33°32' W 118°26'0 7.5
2017-Apr-21 15:29N 33°32' W 118°26'3 7.2
2017-Apr-21 15:00N 33°29' W 118°29'2 3.5
2017-Apr-21 14:21N 33°27' W 118°30'0 0.0
2017-Apr-21 02:21N 33°27' W 118°30'  

Dump ship's entire track history